PTKK Airport Information

Runway Information
Runway 04 Length 6006 ft width 150 ft
Elevation 10 ft Threshold 0 ft Heading 46
Runway 22 Length 6006 ft Width 150 ft
Elevation 10 ft Threshold 0 ft Heading 226
Airport Frequencies
Type CTAF Name CTAF Frequency 123.6 MHZ
Type RDO Name RDO Frequency 123.6 MHZ
Airport Navaids
Type NDB-DME Name Truk Frequency 375 KHZ
Airport Weather Information & NOTAM
ADDS - METARS form results

(2326 UTC 30 July 2021)
Data provider http://aviationweather.gov/metar/data/
 
METAR text: PTKK 302251Z 19008KT 15SM FEW014 SCT280 31/27 A2986 RMK SLP111 T03110272
Conditions at: PTKK (WENO IS/CHUUK , FM) observed 2251 UTC 30 July 2021
Temperature: 31.1°C (88°F)
Dewpoint: 27.2°C (81°F) [RH = 80%]
Pressure (altimeter): 29.86 inches Hg (1011.3 mb)
[Sea-level pressure: 1011.1 mb]
Winds: from the S (190 degrees) at 9 MPH (8 knots; 4.1 m/s)
Visibility: 15 miles (24 km)
Ceiling: at least 12,000 feet AGL
Clouds: few clouds at 1400 feet AGL
scattered clouds at 28000 feet AGL
Weather: no significant weather observed at this time

Forecast for: PTKK (WENO IS/CHUUK , FM)
Text: PTKK 302320Z 3100/3124 18010KT P6SM VCSH SCT016
Forecast period: 0000 UTC 31 July 2021 to 0000 UTC 01 August 2021
Forecast type: FROM: standard forecast or significant change
Winds: from the S (180 degrees) at 12 MPH (10 knots; 5.1 m/s)
Visibility: 6 or more miles (10+ km)
Ceiling: at least 12,000 feet AGL
Clouds: scattered clouds at 1600 feet AGL
Weather: VCSH  (showers in vicinity)